SBOSBO BRI / LIBD
Speedbird OnlineSpeedbird Online BRI / LIBD

Bari Karol Wojtyła Airport
22:58 21.5°C

Location Bari, Italy
Latitude: 41.138901
Longitude: 16.760599
Local Time 22:58 on 20 May 2024
UTC +2 hours (Europe/Rome)
Currency £1 equals EUR 1.17
METAR LIBD 202020Z 14008KT CAVOK 22/17 Q1008
TAF TAF LIBD 201700Z 2018/2118 15007KT 9999 SCT010 BECMG 2109/2111 25010KT TEMPO 2110/2115 06008KT SHRA
Weather As Of 20 May 2024 22:58
Description Clear sky
Wind 15 km/h from South-East (140°)
Cloud Cover 0%
Precipitation Rain: none, Snow: none
Sunrise 05:30
Sunset 20:09
NOTAM 12 active NOTAM
Rotations During the last 90 days there were
41 flights from LGW
41 flights to LGW
Lounges Vip Lounge, Main terminal
Web Airport Website | Wikipedia
Codes IATA: BRI
ICAO: LIBD
Altitude 54 Meter / 177 Feet
Distance 1,714 KM / 1,065 Miles
from London.
Runways
RunwayLength (m)Surface
073000Asphalt
12156Asphalt
253000Asphalt
30156Asphalt
Radio
TypeDescriptionFrequency
APPAPP119.5
TWRTWR118.3
Live ATC



Support Speedbird Online

© 2017-2024 Speedbird Online